sensor_id;sensor_type;location;lat;lon;timestamp;P1;durP1;ratioP1;P2;durP2;ratioP2
56373;SDS011;58212;47.034;7.376;2023-10-09T00:02:05;14.98;;;4.40;;
56373;SDS011;58212;47.034;7.376;2023-10-09T00:04:35;12.63;;;4.00;;
56373;SDS011;58212;47.034;7.376;2023-10-09T00:07:03;10.95;;;4.30;;
56373;SDS011;58212;47.034;7.376;2023-10-09T00:09:33;12.65;;;5.57;;
56373;SDS011;58212;47.034;7.376;2023-10-09T00:12:12;13.35;;;4.55;;
56373;SDS011;58212;47.034;7.376;2023-10-09T00:14:47;15.27;;;3.80;;
56373;SDS011;58212;47.034;7.376;2023-10-09T00:17:16;9.90;;;4.68;;
56373;SDS011;58212;47.034;7.376;2023-10-09T00:19:45;10.70;;;4.30;;
56373;SDS011;58212;47.034;7.376;2023-10-09T00:22:15;13.95;;;4.32;;
56373;SDS011;58212;47.034;7.376;2023-10-09T00:24:55;10.70;;;4.55;;
56373;SDS011;58212;47.034;7.376;2023-10-09T00:27:37;12.23;;;4.03;;
56373;SDS011;58212;47.034;7.376;2023-10-09T00:30:08;15.05;;;4.53;;
56373;SDS011;58212;47.034;7.376;2023-10-09T00:32:40;10.50;;;3.70;;
56373;SDS011;58212;47.034;7.376;2023-10-09T00:35:25;14.35;;;4.10;;
56373;SDS011;58212;47.034;7.376;2023-10-09T00:38:19;11.40;;;4.35;;
56373;SDS011;58212;47.034;7.376;2023-10-09T00:40:57;9.15;;;3.83;;
56373;SDS011;58212;47.034;7.376;2023-10-09T00:43:35;12.07;;;4.03;;
56373;SDS011;58212;47.034;7.376;2023-10-09T00:46:03;11.93;;;4.47;;
56373;SDS011;58212;47.034;7.376;2023-10-09T00:48:37;11.80;;;4.20;;
56373;SDS011;58212;47.034;7.376;2023-10-09T00:51:07;13.45;;;4.22;;
56373;SDS011;58212;47.034;7.376;2023-10-09T00:53:43;10.82;;;3.75;;
56373;SDS011;58212;47.034;7.376;2023-10-09T00:56:14;16.33;;;4.57;;
56373;SDS011;58212;47.034;7.376;2023-10-09T00:58:46;10.00;;;3.67;;
56373;SDS011;58212;47.034;7.376;2023-10-09T01:01:20;14.68;;;4.18;;
56373;SDS011;58212;47.034;7.376;2023-10-09T01:04:16;10.07;;;3.90;;
56373;SDS011;58212;47.034;7.376;2023-10-09T01:06:45;10.85;;;4.50;;
56373;SDS011;58212;47.034;7.376;2023-10-09T01:09:18;13.05;;;4.75;;
56373;SDS011;58212;47.034;7.376;2023-10-09T01:11:47;11.50;;;4.28;;
56373;SDS011;58212;47.034;7.376;2023-10-09T01:14:28;12.48;;;4.03;;
56373;SDS011;58212;47.034;7.376;2023-10-09T01:16:56;11.27;;;4.43;;
56373;SDS011;58212;47.034;7.376;2023-10-09T01:19:26;11.60;;;3.97;;
56373;SDS011;58212;47.034;7.376;2023-10-09T01:21:54;15.15;;;4.03;;
56373;SDS011;58212;47.034;7.376;2023-10-09T01:24:29;11.88;;;4.25;;
56373;SDS011;58212;47.034;7.376;2023-10-09T01:26:57;15.48;;;4.07;;
56373;SDS011;58212;47.034;7.376;2023-10-09T01:29:24;12.25;;;4.25;;
56373;SDS011;58212;47.034;7.376;2023-10-09T01:32:17;11.60;;;4.25;;
56373;SDS011;58212;47.034;7.376;2023-10-09T01:34:45;13.82;;;4.57;;
56373;SDS011;58212;47.034;7.376;2023-10-09T01:37:15;12.20;;;4.40;;
56373;SDS011;58212;47.034;7.376;2023-10-09T01:39:45;12.75;;;4.18;;
56373;SDS011;58212;47.034;7.376;2023-10-09T01:42:14;12.25;;;4.38;;
56373;SDS011;58212;47.034;7.376;2023-10-09T01:44:50;12.80;;;4.47;;
56373;SDS011;58212;47.034;7.376;2023-10-09T01:47:18;11.15;;;4.13;;
56373;SDS011;58212;47.034;7.376;2023-10-09T01:49:46;14.32;;;4.15;;
56373;SDS011;58212;47.034;7.376;2023-10-09T01:52:14;14.75;;;4.53;;
56373;SDS011;58212;47.034;7.376;2023-10-09T01:54:44;13.52;;;4.28;;
56373;SDS011;58212;47.034;7.376;2023-10-09T01:57:14;13.07;;;4.10;;
56373;SDS011;58212;47.034;7.376;2023-10-09T01:59:48;11.77;;;4.05;;
56373;SDS011;58212;47.034;7.376;2023-10-09T02:02:15;13.20;;;4.00;;
56373;SDS011;58212;47.034;7.376;2023-10-09T02:04:59;12.73;;;4.22;;
56373;SDS011;58212;47.034;7.376;2023-10-09T02:07:36;10.70;;;4.10;;
56373;SDS011;58212;47.034;7.376;2023-10-09T02:10:18;18.35;;;5.13;;
56373;SDS011;58212;47.034;7.376;2023-10-09T02:12:57;14.30;;;4.75;;
56373;SDS011;58212;47.034;7.376;2023-10-09T02:15:25;11.15;;;4.32;;
56373;SDS011;58212;47.034;7.376;2023-10-09T02:18:12;13.50;;;3.88;;
56373;SDS011;58212;47.034;7.376;2023-10-09T02:20:43;11.10;;;3.97;;
56373;SDS011;58212;47.034;7.376;2023-10-09T02:23:12;12.65;;;4.35;;
56373;SDS011;58212;47.034;7.376;2023-10-09T02:25:41;20.25;;;4.50;;
56373;SDS011;58212;47.034;7.376;2023-10-09T02:28:09;11.88;;;4.57;;
56373;SDS011;58212;47.034;7.376;2023-10-09T02:30:42;9.93;;;4.22;;
56373;SDS011;58212;47.034;7.376;2023-10-09T02:33:12;11.70;;;4.72;;
56373;SDS011;58212;47.034;7.376;2023-10-09T02:35:43;11.95;;;4.20;;
56373;SDS011;58212;47.034;7.376;2023-10-09T02:38:16;11.77;;;4.00;;
56373;SDS011;58212;47.034;7.376;2023-10-09T02:40:44;9.82;;;4.22;;
56373;SDS011;58212;47.034;7.376;2023-10-09T02:43:25;11.10;;;4.32;;
56373;SDS011;58212;47.034;7.376;2023-10-09T02:45:52;11.80;;;3.75;;
56373;SDS011;58212;47.034;7.376;2023-10-09T02:48:19;11.05;;;4.47;;
56373;SDS011;58212;47.034;7.376;2023-10-09T02:53:57;15.05;;;4.18;;
56373;SDS011;58212;47.034;7.376;2023-10-09T02:56:36;12.15;;;4.45;;
56373;SDS011;58212;47.034;7.376;2023-10-09T02:59:08;10.95;;;4.07;;
56373;SDS011;58212;47.034;7.376;2023-10-09T03:01:36;14.00;;;3.95;;
56373;SDS011;58212;47.034;7.376;2023-10-09T03:04:06;12.20;;;4.45;;
56373;SDS011;58212;47.034;7.376;2023-10-09T03:06:35;15.85;;;4.45;;
56373;SDS011;58212;47.034;7.376;2023-10-09T03:09:16;11.20;;;4.05;;
56373;SDS011;58212;47.034;7.376;2023-10-09T03:11:44;13.32;;;3.92;;
56373;SDS011;58212;47.034;7.376;2023-10-09T03:14:13;11.10;;;4.25;;
56373;SDS011;58212;47.034;7.376;2023-10-09T03:16:41;12.35;;;3.90;;
56373;SDS011;58212;47.034;7.376;2023-10-09T03:19:08;13.88;;;4.57;;
56373;SDS011;58212;47.034;7.376;2023-10-09T03:21:36;13.00;;;3.97;;
56373;SDS011;58212;47.034;7.376;2023-10-09T03:24:02;11.43;;;3.90;;
56373;SDS011;58212;47.034;7.376;2023-10-09T03:26:32;11.00;;;4.35;;
56373;SDS011;58212;47.034;7.376;2023-10-09T03:29:00;15.73;;;4.70;;
56373;SDS011;58212;47.034;7.376;2023-10-09T03:31:26;13.63;;;4.47;;
56373;SDS011;58212;47.034;7.376;2023-10-09T03:33:56;12.80;;;4.35;;
56373;SDS011;58212;47.034;7.376;2023-10-09T03:36:22;13.80;;;4.53;;
56373;SDS011;58212;47.034;7.376;2023-10-09T03:38:52;14.55;;;4.10;;
56373;SDS011;58212;47.034;7.376;2023-10-09T03:41:20;11.98;;;4.20;;
56373;SDS011;58212;47.034;7.376;2023-10-09T03:43:46;12.98;;;4.03;;
56373;SDS011;58212;47.034;7.376;2023-10-09T03:46:15;11.98;;;3.70;;
56373;SDS011;58212;47.034;7.376;2023-10-09T03:48:46;11.82;;;4.40;;
56373;SDS011;58212;47.034;7.376;2023-10-09T03:51:13;11.50;;;3.83;;
56373;SDS011;58212;47.034;7.376;2023-10-09T03:53:46;12.73;;;4.53;;
56373;SDS011;58212;47.034;7.376;2023-10-09T03:56:14;11.93;;;4.28;;
56373;SDS011;58212;47.034;7.376;2023-10-09T03:58:42;10.73;;;4.18;;
56373;SDS011;58212;47.034;7.376;2023-10-09T04:01:10;12.20;;;4.97;;
56373;SDS011;58212;47.034;7.376;2023-10-09T04:03:44;10.32;;;3.92;;
56373;SDS011;58212;47.034;7.376;2023-10-09T04:06:11;8.45;;;4.10;;
56373;SDS011;58212;47.034;7.376;2023-10-09T04:08:38;10.23;;;4.57;;
56373;SDS011;58212;47.034;7.376;2023-10-09T04:11:12;11.57;;;4.88;;
56373;SDS011;58212;47.034;7.376;2023-10-09T04:13:42;11.52;;;4.65;;
56373;SDS011;58212;47.034;7.376;2023-10-09T04:16:11;13.90;;;4.60;;
56373;SDS011;58212;47.034;7.376;2023-10-09T04:19:02;12.68;;;3.90;;
56373;SDS011;58212;47.034;7.376;2023-10-09T04:21:36;13.18;;;4.50;;
56373;SDS011;58212;47.034;7.376;2023-10-09T04:24:02;10.77;;;4.57;;
56373;SDS011;58212;47.034;7.376;2023-10-09T04:26:48;13.88;;;3.97;;
56373;SDS011;58212;47.034;7.376;2023-10-09T04:29:21;14.05;;;4.20;;
56373;SDS011;58212;47.034;7.376;2023-10-09T04:32:04;14.38;;;4.07;;
56373;SDS011;58212;47.034;7.376;2023-10-09T04:34:34;12.88;;;3.78;;
56373;SDS011;58212;47.034;7.376;2023-10-09T04:37:01;12.90;;;3.80;;
56373;SDS011;58212;47.034;7.376;2023-10-09T04:39:46;13.05;;;4.05;;
56373;SDS011;58212;47.034;7.376;2023-10-09T04:42:14;12.68;;;4.57;;
56373;SDS011;58212;47.034;7.376;2023-10-09T04:45:02;12.77;;;3.85;;
56373;SDS011;58212;47.034;7.376;2023-10-09T04:47:58;13.45;;;4.43;;
56373;SDS011;58212;47.034;7.376;2023-10-09T04:50:33;14.02;;;4.53;;
56373;SDS011;58212;47.034;7.376;2023-10-09T04:53:13;14.73;;;4.05;;
56373;SDS011;58212;47.034;7.376;2023-10-09T04:55:49;17.38;;;4.57;;
56373;SDS011;58212;47.034;7.376;2023-10-09T04:58:24;14.43;;;3.95;;
56373;SDS011;58212;47.034;7.376;2023-10-09T05:00:52;10.98;;;4.85;;
56373;SDS011;58212;47.034;7.376;2023-10-09T05:03:39;13.90;;;4.00;;
56373;SDS011;58212;47.034;7.376;2023-10-09T05:06:11;13.48;;;4.00;;
56373;SDS011;58212;47.034;7.376;2023-10-09T05:09:07;12.40;;;4.43;;
56373;SDS011;58212;47.034;7.376;2023-10-09T05:11:40;8.80;;;3.90;;
56373;SDS011;58212;47.034;7.376;2023-10-09T05:14:26;11.98;;;4.60;;
56373;SDS011;58212;47.034;7.376;2023-10-09T05:17:06;9.25;;;4.03;;
56373;SDS011;58212;47.034;7.376;2023-10-09T05:19:32;11.20;;;4.18;;
56373;SDS011;58212;47.034;7.376;2023-10-09T05:22:21;14.30;;;4.25;;
56373;SDS011;58212;47.034;7.376;2023-10-09T05:25:01;8.68;;;4.05;;
56373;SDS011;58212;47.034;7.376;2023-10-09T05:27:39;12.70;;;4.38;;
56373;SDS011;58212;47.034;7.376;2023-10-09T05:30:15;11.10;;;4.47;;
56373;SDS011;58212;47.034;7.376;2023-10-09T05:32:51;16.15;;;4.88;;
56373;SDS011;58212;47.034;7.376;2023-10-09T05:35:34;14.98;;;4.38;;
56373;SDS011;58212;47.034;7.376;2023-10-09T05:38:25;12.38;;;3.90;;
56373;SDS011;58212;47.034;7.376;2023-10-09T05:40:51;14.50;;;4.28;;
56373;SDS011;58212;47.034;7.376;2023-10-09T05:43:41;9.15;;;3.67;;
56373;SDS011;58212;47.034;7.376;2023-10-09T05:46:26;11.48;;;4.20;;
56373;SDS011;58212;47.034;7.376;2023-10-09T05:49:00;10.40;;;4.05;;
56373;SDS011;58212;47.034;7.376;2023-10-09T05:51:35;11.98;;;4.15;;
56373;SDS011;58212;47.034;7.376;2023-10-09T05:54:10;10.73;;;4.68;;
56373;SDS011;58212;47.034;7.376;2023-10-09T05:56:54;10.50;;;3.92;;
56373;SDS011;58212;47.034;7.376;2023-10-09T05:59:50;14.40;;;4.63;;
56373;SDS011;58212;47.034;7.376;2023-10-09T06:02:37;9.88;;;3.70;;
56373;SDS011;58212;47.034;7.376;2023-10-09T06:05:21;14.80;;;4.47;;
56373;SDS011;58212;47.034;7.376;2023-10-09T06:08:05;10.10;;;4.13;;
56373;SDS011;58212;47.034;7.376;2023-10-09T06:10:34;13.77;;;4.70;;
56373;SDS011;58212;47.034;7.376;2023-10-09T06:13:06;9.38;;;4.18;;
56373;SDS011;58212;47.034;7.376;2023-10-09T06:15:54;12.38;;;4.25;;
56373;SDS011;58212;47.034;7.376;2023-10-09T06:18:45;13.82;;;4.55;;
56373;SDS011;58212;47.034;7.376;2023-10-09T06:21:33;8.95;;;4.00;;
56373;SDS011;58212;47.034;7.376;2023-10-09T06:24:05;13.77;;;4.25;;
56373;SDS011;58212;47.034;7.376;2023-10-09T06:26:41;16.67;;;4.50;;
56373;SDS011;58212;47.034;7.376;2023-10-09T06:29:17;13.50;;;4.78;;
56373;SDS011;58212;47.034;7.376;2023-10-09T06:32:00;10.05;;;3.83;;
56373;SDS011;58212;47.034;7.376;2023-10-09T06:34:50;13.45;;;4.20;;
56373;SDS011;58212;47.034;7.376;2023-10-09T06:37:18;9.32;;;3.92;;
56373;SDS011;58212;47.034;7.376;2023-10-09T06:39:44;15.20;;;4.22;;
56373;SDS011;58212;47.034;7.376;2023-10-09T06:42:38;9.32;;;3.53;;
56373;SDS011;58212;47.034;7.376;2023-10-09T06:45:10;13.65;;;4.38;;
56373;SDS011;58212;47.034;7.376;2023-10-09T06:47:41;21.40;;;4.70;;
56373;SDS011;58212;47.034;7.376;2023-10-09T06:50:19;9.82;;;4.55;;
56373;SDS011;58212;47.034;7.376;2023-10-09T06:53:12;12.35;;;4.68;;
56373;SDS011;58212;47.034;7.376;2023-10-09T06:55:50;10.88;;;3.80;;
56373;SDS011;58212;47.034;7.376;2023-10-09T06:58:19;16.15;;;4.90;;
56373;SDS011;58212;47.034;7.376;2023-10-09T07:00:49;10.43;;;4.45;;
56373;SDS011;58212;47.034;7.376;2023-10-09T07:03:40;10.57;;;4.15;;
56373;SDS011;58212;47.034;7.376;2023-10-09T07:06:18;8.20;;;3.78;;
56373;SDS011;58212;47.034;7.376;2023-10-09T07:09:11;10.73;;;4.00;;
56373;SDS011;58212;47.034;7.376;2023-10-09T07:11:44;12.27;;;4.75;;
56373;SDS011;58212;47.034;7.376;2023-10-09T07:14:25;13.85;;;4.55;;
56373;SDS011;58212;47.034;7.376;2023-10-09T07:17:10;12.82;;;5.35;;
56373;SDS011;58212;47.034;7.376;2023-10-09T07:19:47;12.40;;;4.20;;
56373;SDS011;58212;47.034;7.376;2023-10-09T07:22:34;10.43;;;4.82;;
56373;SDS011;58212;47.034;7.376;2023-10-09T07:25:18;13.55;;;4.50;;
56373;SDS011;58212;47.034;7.376;2023-10-09T07:28:06;15.63;;;4.43;;
56373;SDS011;58212;47.034;7.376;2023-10-09T07:30:57;17.77;;;6.10;;
56373;SDS011;58212;47.034;7.376;2023-10-09T07:33:28;12.20;;;5.97;;
56373;SDS011;58212;47.034;7.376;2023-10-09T07:36:16;11.77;;;5.40;;
56373;SDS011;58212;47.034;7.376;2023-10-09T07:38:55;16.02;;;5.72;;
56373;SDS011;58212;47.034;7.376;2023-10-09T07:41:29;12.13;;;5.18;;
56373;SDS011;58212;47.034;7.376;2023-10-09T07:44:05;14.73;;;4.90;;
56373;SDS011;58212;47.034;7.376;2023-10-09T07:47:04;12.95;;;4.68;;
56373;SDS011;58212;47.034;7.376;2023-10-09T07:49:43;16.10;;;4.60;;
56373;SDS011;58212;47.034;7.376;2023-10-09T07:52:17;14.70;;;4.85;;
56373;SDS011;58212;47.034;7.376;2023-10-09T07:54:47;17.33;;;4.55;;
56373;SDS011;58212;47.034;7.376;2023-10-09T07:57:20;12.00;;;4.72;;
56373;SDS011;58212;47.034;7.376;2023-10-09T07:59:55;14.40;;;5.65;;
56373;SDS011;58212;47.034;7.376;2023-10-09T08:02:28;13.95;;;5.90;;
56373;SDS011;58212;47.034;7.376;2023-10-09T08:04:58;22.40;;;6.28;;
56373;SDS011;58212;47.034;7.376;2023-10-09T08:07:31;15.23;;;5.93;;
56373;SDS011;58212;47.034;7.376;2023-10-09T08:10:00;21.05;;;8.30;;
56373;SDS011;58212;47.034;7.376;2023-10-09T08:12:44;14.77;;;6.43;;
56373;SDS011;58212;47.034;7.376;2023-10-09T08:15:46;20.13;;;7.18;;
56373;SDS011;58212;47.034;7.376;2023-10-09T08:18:20;17.10;;;6.20;;
56373;SDS011;58212;47.034;7.376;2023-10-09T08:20:53;17.85;;;6.78;;
56373;SDS011;58212;47.034;7.376;2023-10-09T08:23:34;12.95;;;6.65;;
56373;SDS011;58212;47.034;7.376;2023-10-09T08:26:13;18.15;;;6.75;;
56373;SDS011;58212;47.034;7.376;2023-10-09T08:28:40;18.23;;;6.45;;
56373;SDS011;58212;47.034;7.376;2023-10-09T08:31:08;16.95;;;6.32;;
56373;SDS011;58212;47.034;7.376;2023-10-09T08:33:46;17.45;;;6.25;;
56373;SDS011;58212;47.034;7.376;2023-10-09T08:36:22;17.40;;;6.82;;
56373;SDS011;58212;47.034;7.376;2023-10-09T08:38:48;16.25;;;7.38;;
56373;SDS011;58212;47.034;7.376;2023-10-09T08:41:14;14.90;;;7.18;;
56373;SDS011;58212;47.034;7.376;2023-10-09T08:43:47;15.07;;;6.63;;
56373;SDS011;58212;47.034;7.376;2023-10-09T08:46:22;11.32;;;6.60;;
56373;SDS011;58212;47.034;7.376;2023-10-09T08:48:53;14.10;;;6.45;;
56373;SDS011;58212;47.034;7.376;2023-10-09T08:51:21;16.38;;;6.63;;
56373;SDS011;58212;47.034;7.376;2023-10-09T08:53:51;16.92;;;7.03;;
56373;SDS011;58212;47.034;7.376;2023-10-09T08:56:18;17.27;;;7.93;;
56373;SDS011;58212;47.034;7.376;2023-10-09T08:58:51;16.48;;;6.13;;
56373;SDS011;58212;47.034;7.376;2023-10-09T09:01:20;19.95;;;6.32;;
56373;SDS011;58212;47.034;7.376;2023-10-09T09:03:48;15.77;;;6.40;;
56373;SDS011;58212;47.034;7.376;2023-10-09T09:06:18;14.55;;;6.25;;
56373;SDS011;58212;47.034;7.376;2023-10-09T09:08:45;16.70;;;7.32;;
56373;SDS011;58212;47.034;7.376;2023-10-09T09:11:13;12.82;;;6.38;;
56373;SDS011;58212;47.034;7.376;2023-10-09T09:13:43;12.18;;;6.07;;
56373;SDS011;58212;47.034;7.376;2023-10-09T09:16:17;15.90;;;5.95;;
56373;SDS011;58212;47.034;7.376;2023-10-09T09:21:49;17.08;;;5.60;;
56373;SDS011;58212;47.034;7.376;2023-10-09T09:24:19;14.52;;;5.75;;
56373;SDS011;58212;47.034;7.376;2023-10-09T09:26:57;19.58;;;6.53;;
56373;SDS011;58212;47.034;7.376;2023-10-09T09:29:38;16.75;;;5.72;;
56373;SDS011;58212;47.034;7.376;2023-10-09T09:32:06;15.40;;;5.88;;
56373;SDS011;58212;47.034;7.376;2023-10-09T09:34:45;14.18;;;5.35;;
56373;SDS011;58212;47.034;7.376;2023-10-09T09:37:19;14.95;;;5.75;;
56373;SDS011;58212;47.034;7.376;2023-10-09T09:39:47;15.55;;;6.15;;
56373;SDS011;58212;47.034;7.376;2023-10-09T09:42:16;12.70;;;5.90;;
56373;SDS011;58212;47.034;7.376;2023-10-09T09:44:43;13.73;;;5.43;;
56373;SDS011;58212;47.034;7.376;2023-10-09T09:47:12;17.05;;;5.18;;
56373;SDS011;58212;47.034;7.376;2023-10-09T09:49:48;11.63;;;5.15;;
56373;SDS011;58212;47.034;7.376;2023-10-09T09:52:26;13.93;;;5.00;;
56373;SDS011;58212;47.034;7.376;2023-10-09T09:54:55;12.73;;;4.82;;
56373;SDS011;58212;47.034;7.376;2023-10-09T09:57:23;16.20;;;5.47;;
56373;SDS011;58212;47.034;7.376;2023-10-09T09:59:52;16.20;;;5.18;;
56373;SDS011;58212;47.034;7.376;2023-10-09T10:02:22;12.40;;;5.15;;
56373;SDS011;58212;47.034;7.376;2023-10-09T10:04:55;12.25;;;5.75;;
56373;SDS011;58212;47.034;7.376;2023-10-09T10:07:27;11.25;;;4.65;;
56373;SDS011;58212;47.034;7.376;2023-10-09T10:09:56;15.55;;;6.10;;
56373;SDS011;58212;47.034;7.376;2023-10-09T10:18:55;14.18;;;5.60;;
56373;SDS011;58212;47.034;7.376;2023-10-09T10:21:25;14.85;;;5.35;;
56373;SDS011;58212;47.034;7.376;2023-10-09T10:27:19;16.83;;;5.97;;
56373;SDS011;58212;47.034;7.376;2023-10-09T10:32:59;16.05;;;5.40;;
56373;SDS011;58212;47.034;7.376;2023-10-09T10:35:34;16.23;;;5.32;;
56373;SDS011;58212;47.034;7.376;2023-10-09T10:38:23;13.75;;;5.55;;
56373;SDS011;58212;47.034;7.376;2023-10-09T10:41:07;13.18;;;5.20;;
56373;SDS011;58212;47.034;7.376;2023-10-09T10:43:44;14.93;;;4.97;;
56373;SDS011;58212;47.034;7.376;2023-10-09T10:46:20;14.98;;;5.90;;
56373;SDS011;58212;47.034;7.376;2023-10-09T10:48:56;9.15;;;5.18;;
56373;SDS011;58212;47.034;7.376;2023-10-09T10:51:24;12.80;;;4.93;;
56373;SDS011;58212;47.034;7.376;2023-10-09T10:54:00;13.80;;;4.95;;
56373;SDS011;58212;47.034;7.376;2023-10-09T10:56:49;14.98;;;5.25;;
56373;SDS011;58212;47.034;7.376;2023-10-09T10:59:16;13.45;;;4.30;;
56373;SDS011;58212;47.034;7.376;2023-10-09T11:01:48;16.17;;;5.97;;
56373;SDS011;58212;47.034;7.376;2023-10-09T11:04:19;11.73;;;4.20;;
56373;SDS011;58212;47.034;7.376;2023-10-09T11:06:53;13.80;;;4.53;;
56373;SDS011;58212;47.034;7.376;2023-10-09T11:09:26;12.23;;;4.97;;
56373;SDS011;58212;47.034;7.376;2023-10-09T11:12:04;14.05;;;4.82;;
56373;SDS011;58212;47.034;7.376;2023-10-09T11:14:48;18.45;;;4.95;;
56373;SDS011;58212;47.034;7.376;2023-10-09T11:17:31;13.55;;;4.78;;
56373;SDS011;58212;47.034;7.376;2023-10-09T11:20:01;11.93;;;5.13;;
56373;SDS011;58212;47.034;7.376;2023-10-09T11:22:48;17.92;;;4.68;;
56373;SDS011;58212;47.034;7.376;2023-10-09T11:25:32;12.70;;;4.60;;
56373;SDS011;58212;47.034;7.376;2023-10-09T11:28:00;12.25;;;4.80;;
56373;SDS011;58212;47.034;7.376;2023-10-09T11:30:48;15.32;;;5.15;;
56373;SDS011;58212;47.034;7.376;2023-10-09T11:33:20;12.90;;;4.70;;
56373;SDS011;58212;47.034;7.376;2023-10-09T11:35:54;18.05;;;5.30;;
56373;SDS011;58212;47.034;7.376;2023-10-09T11:38:23;12.25;;;4.57;;
56373;SDS011;58212;47.034;7.376;2023-10-09T11:40:49;12.60;;;4.35;;
56373;SDS011;58212;47.034;7.376;2023-10-09T11:43:30;12.20;;;5.18;;
56373;SDS011;58212;47.034;7.376;2023-10-09T11:46:18;10.48;;;4.40;;
56373;SDS011;58212;47.034;7.376;2023-10-09T11:49:13;17.80;;;5.28;;
56373;SDS011;58212;47.034;7.376;2023-10-09T11:51:51;14.32;;;4.80;;
56373;SDS011;58212;47.034;7.376;2023-10-09T11:54:51;11.80;;;4.65;;
56373;SDS011;58212;47.034;7.376;2023-10-09T11:57:22;11.48;;;4.40;;
56373;SDS011;58212;47.034;7.376;2023-10-09T11:59:57;11.10;;;4.10;;
56373;SDS011;58212;47.034;7.376;2023-10-09T12:02:27;11.93;;;4.75;;
56373;SDS011;58212;47.034;7.376;2023-10-09T12:04:54;14.02;;;5.22;;
56373;SDS011;58212;47.034;7.376;2023-10-09T12:07:22;15.98;;;4.65;;
56373;SDS011;58212;47.034;7.376;2023-10-09T12:09:50;16.50;;;4.80;;
56373;SDS011;58212;47.034;7.376;2023-10-09T12:12:21;9.43;;;4.32;;
56373;SDS011;58212;47.034;7.376;2023-10-09T12:14:51;14.13;;;5.65;;
56373;SDS011;58212;47.034;7.376;2023-10-09T12:17:18;12.52;;;4.82;;
56373;SDS011;58212;47.034;7.376;2023-10-09T12:19:50;15.15;;;4.88;;
56373;SDS011;58212;47.034;7.376;2023-10-09T12:22:17;15.40;;;5.38;;
56373;SDS011;58212;47.034;7.376;2023-10-09T12:24:47;17.40;;;5.03;;
56373;SDS011;58212;47.034;7.376;2023-10-09T12:27:13;13.32;;;4.82;;
56373;SDS011;58212;47.034;7.376;2023-10-09T12:29:42;16.30;;;4.43;;
56373;SDS011;58212;47.034;7.376;2023-10-09T12:32:11;12.80;;;4.70;;
56373;SDS011;58212;47.034;7.376;2023-10-09T12:34:38;12.90;;;5.65;;
56373;SDS011;58212;47.034;7.376;2023-10-09T12:37:08;16.25;;;5.00;;
56373;SDS011;58212;47.034;7.376;2023-10-09T12:39:35;17.05;;;4.60;;
56373;SDS011;58212;47.034;7.376;2023-10-09T12:42:06;11.52;;;4.43;;
56373;SDS011;58212;47.034;7.376;2023-10-09T12:44:33;11.63;;;4.10;;
56373;SDS011;58212;47.034;7.376;2023-10-09T12:47:04;16.40;;;5.03;;
56373;SDS011;58212;47.034;7.376;2023-10-09T12:49:31;10.95;;;5.10;;
56373;SDS011;58212;47.034;7.376;2023-10-09T12:51:58;12.57;;;4.53;;
56373;SDS011;58212;47.034;7.376;2023-10-09T12:54:26;14.43;;;4.68;;
56373;SDS011;58212;47.034;7.376;2023-10-09T12:56:53;12.02;;;4.35;;
56373;SDS011;58212;47.034;7.376;2023-10-09T12:59:21;14.60;;;4.68;;
56373;SDS011;58212;47.034;7.376;2023-10-09T13:01:49;11.05;;;4.80;;
56373;SDS011;58212;47.034;7.376;2023-10-09T13:04:22;15.32;;;4.80;;
56373;SDS011;58212;47.034;7.376;2023-10-09T13:06:57;9.65;;;4.05;;
56373;SDS011;58212;47.034;7.376;2023-10-09T13:09:29;12.30;;;4.65;;
56373;SDS011;58212;47.034;7.376;2023-10-09T13:12:00;10.50;;;4.60;;
56373;SDS011;58212;47.034;7.376;2023-10-09T13:14:27;14.93;;;4.93;;
56373;SDS011;58212;47.034;7.376;2023-10-09T13:16:54;12.55;;;4.07;;
56373;SDS011;58212;47.034;7.376;2023-10-09T13:19:21;12.75;;;3.95;;
56373;SDS011;58212;47.034;7.376;2023-10-09T13:21:49;15.13;;;4.68;;
56373;SDS011;58212;47.034;7.376;2023-10-09T13:24:16;14.00;;;4.68;;
56373;SDS011;58212;47.034;7.376;2023-10-09T13:26:44;10.88;;;4.35;;
56373;SDS011;58212;47.034;7.376;2023-10-09T13:29:16;13.57;;;4.93;;
56373;SDS011;58212;47.034;7.376;2023-10-09T13:31:51;11.48;;;4.63;;
56373;SDS011;58212;47.034;7.376;2023-10-09T13:34:23;13.35;;;4.43;;
56373;SDS011;58212;47.034;7.376;2023-10-09T13:36:53;10.98;;;4.38;;
56373;SDS011;58212;47.034;7.376;2023-10-09T13:39:20;14.63;;;4.72;;
56373;SDS011;58212;47.034;7.376;2023-10-09T13:41:51;13.48;;;4.47;;
56373;SDS011;58212;47.034;7.376;2023-10-09T13:44:23;16.55;;;4.55;;
56373;SDS011;58212;47.034;7.376;2023-10-09T13:46:52;11.73;;;4.50;;
56373;SDS011;58212;47.034;7.376;2023-10-09T13:49:19;18.48;;;4.60;;
56373;SDS011;58212;47.034;7.376;2023-10-09T13:51:47;15.02;;;4.72;;
56373;SDS011;58212;47.034;7.376;2023-10-09T13:54:15;13.73;;;4.32;;
56373;SDS011;58212;47.034;7.376;2023-10-09T13:56:46;11.68;;;4.25;;
56373;SDS011;58212;47.034;7.376;2023-10-09T13:59:19;10.65;;;4.07;;
56373;SDS011;58212;47.034;7.376;2023-10-09T14:01:47;12.55;;;4.60;;
56373;SDS011;58212;47.034;7.376;2023-10-09T14:04:15;14.23;;;4.70;;
56373;SDS011;58212;47.034;7.376;2023-10-09T14:06:43;11.13;;;4.75;;
56373;SDS011;58212;47.034;7.376;2023-10-09T14:09:11;14.80;;;4.68;;
56373;SDS011;58212;47.034;7.376;2023-10-09T14:11:54;12.48;;;4.80;;
56373;SDS011;58212;47.034;7.376;2023-10-09T14:14:33;12.27;;;4.47;;
56373;SDS011;58212;47.034;7.376;2023-10-09T14:17:03;10.73;;;4.28;;
56373;SDS011;58212;47.034;7.376;2023-10-09T14:19:37;11.82;;;4.97;;
56373;SDS011;58212;47.034;7.376;2023-10-09T14:22:04;14.30;;;5.00;;
56373;SDS011;58212;47.034;7.376;2023-10-09T14:24:31;9.65;;;3.95;;
56373;SDS011;58212;47.034;7.376;2023-10-09T14:26:59;9.85;;;4.35;;
56373;SDS011;58212;47.034;7.376;2023-10-09T14:29:29;13.65;;;4.57;;
56373;SDS011;58212;47.034;7.376;2023-10-09T14:31:58;10.85;;;4.35;;
56373;SDS011;58212;47.034;7.376;2023-10-09T14:34:28;12.80;;;4.63;;
56373;SDS011;58212;47.034;7.376;2023-10-09T14:36:58;10.30;;;4.50;;
56373;SDS011;58212;47.034;7.376;2023-10-09T14:39:26;10.05;;;4.25;;
56373;SDS011;58212;47.034;7.376;2023-10-09T14:41:53;12.48;;;4.22;;
56373;SDS011;58212;47.034;7.376;2023-10-09T14:44:22;13.43;;;4.43;;
56373;SDS011;58212;47.034;7.376;2023-10-09T14:46:53;11.90;;;4.30;;
56373;SDS011;58212;47.034;7.376;2023-10-09T14:49:25;18.05;;;5.38;;
56373;SDS011;58212;47.034;7.376;2023-10-09T14:52:00;11.52;;;5.07;;
56373;SDS011;58212;47.034;7.376;2023-10-09T14:54:26;10.48;;;4.25;;
56373;SDS011;58212;47.034;7.376;2023-10-09T14:56:53;13.57;;;4.50;;
56373;SDS011;58212;47.034;7.376;2023-10-09T14:59:21;11.88;;;4.60;;
56373;SDS011;58212;47.034;7.376;2023-10-09T15:01:48;14.77;;;5.05;;
56373;SDS011;58212;47.034;7.376;2023-10-09T15:04:15;14.50;;;4.45;;
56373;SDS011;58212;47.034;7.376;2023-10-09T15:06:43;16.60;;;4.57;;
56373;SDS011;58212;47.034;7.376;2023-10-09T15:09:13;30.00;;;5.93;;
56373;SDS011;58212;47.034;7.376;2023-10-09T15:11:47;13.18;;;4.72;;
56373;SDS011;58212;47.034;7.376;2023-10-09T15:14:14;15.32;;;5.15;;
56373;SDS011;58212;47.034;7.376;2023-10-09T15:16:43;14.20;;;5.05;;
56373;SDS011;58212;47.034;7.376;2023-10-09T15:19:11;11.63;;;4.53;;
56373;SDS011;58212;47.034;7.376;2023-10-09T15:21:38;11.95;;;4.75;;
56373;SDS011;58212;47.034;7.376;2023-10-09T15:24:11;13.52;;;5.30;;
56373;SDS011;58212;47.034;7.376;2023-10-09T15:26:41;12.95;;;4.60;;
56373;SDS011;58212;47.034;7.376;2023-10-09T15:29:07;18.98;;;4.50;;
56373;SDS011;58212;47.034;7.376;2023-10-09T15:31:35;10.88;;;4.60;;
56373;SDS011;58212;47.034;7.376;2023-10-09T15:34:02;11.43;;;4.95;;